sensor_id;sensor_type;location;lat;lon;timestamp;temperature;humidity
71155;DHT22;59375;53.216;5.728;2022-07-18T00:00:04;18.60;92.80
71155;DHT22;59375;53.216;5.728;2022-07-18T00:02:31;18.60;92.90
71155;DHT22;59375;53.216;5.728;2022-07-18T00:04:56;18.60;93.20
71155;DHT22;59375;53.216;5.728;2022-07-18T00:07:22;18.50;93.20
71155;DHT22;59375;53.216;5.728;2022-07-18T00:09:47;18.50;93.30
71155;DHT22;59375;53.216;5.728;2022-07-18T00:12:13;18.50;93.40
71155;DHT22;59375;53.216;5.728;2022-07-18T00:14:39;18.50;93.40
71155;DHT22;59375;53.216;5.728;2022-07-18T00:17:05;18.40;93.40
71155;DHT22;59375;53.216;5.728;2022-07-18T00:19:31;18.40;93.40
71155;DHT22;59375;53.216;5.728;2022-07-18T00:21:57;18.40;93.50
71155;DHT22;59375;53.216;5.728;2022-07-18T00:24:23;18.40;93.70
71155;DHT22;59375;53.216;5.728;2022-07-18T00:26:48;18.40;93.50
71155;DHT22;59375;53.216;5.728;2022-07-18T00:29:14;18.40;93.40
71155;DHT22;59375;53.216;5.728;2022-07-18T00:31:40;18.40;93.30
71155;DHT22;59375;53.216;5.728;2022-07-18T00:34:05;18.40;93.30
71155;DHT22;59375;53.216;5.728;2022-07-18T00:36:31;18.40;93.40
71155;DHT22;59375;53.216;5.728;2022-07-18T00:38:57;18.30;93.30
71155;DHT22;59375;53.216;5.728;2022-07-18T00:41:24;18.30;93.30
71155;DHT22;59375;53.216;5.728;2022-07-18T00:43:50;18.30;93.30
71155;DHT22;59375;53.216;5.728;2022-07-18T00:46:18;18.30;93.10
71155;DHT22;59375;53.216;5.728;2022-07-18T00:48:45;18.30;93.00
71155;DHT22;59375;53.216;5.728;2022-07-18T00:51:10;18.30;93.00
71155;DHT22;59375;53.216;5.728;2022-07-18T00:53:37;18.30;93.00
71155;DHT22;59375;53.216;5.728;2022-07-18T00:56:03;18.30;93.00
71155;DHT22;59375;53.216;5.728;2022-07-18T00:58:29;18.30;93.00
71155;DHT22;59375;53.216;5.728;2022-07-18T01:00:56;18.30;92.90
71155;DHT22;59375;53.216;5.728;2022-07-18T01:03:40;18.40;92.90
71155;DHT22;59375;53.216;5.728;2022-07-18T01:06:06;18.40;93.10
71155;DHT22;59375;53.216;5.728;2022-07-18T01:08:32;18.50;92.90
71155;DHT22;59375;53.216;5.728;2022-07-18T01:10:58;18.40;92.80
71155;DHT22;59375;53.216;5.728;2022-07-18T01:13:24;18.50;92.70
71155;DHT22;59375;53.216;5.728;2022-07-18T01:15:50;18.50;92.60
71155;DHT22;59375;53.216;5.728;2022-07-18T01:18:15;18.50;92.60
71155;DHT22;59375;53.216;5.728;2022-07-18T01:20:41;18.40;92.50
71155;DHT22;59375;53.216;5.728;2022-07-18T01:23:06;18.50;92.40
71155;DHT22;59375;53.216;5.728;2022-07-18T01:25:32;18.40;92.30
71155;DHT22;59375;53.216;5.728;2022-07-18T01:27:57;18.50;92.20
71155;DHT22;59375;53.216;5.728;2022-07-18T01:30:24;18.40;92.10
71155;DHT22;59375;53.216;5.728;2022-07-18T01:32:57;18.50;92.00
71155;DHT22;59375;53.216;5.728;2022-07-18T01:35:24;18.40;91.90
71155;DHT22;59375;53.216;5.728;2022-07-18T01:37:53;18.40;91.90
71155;DHT22;59375;53.216;5.728;2022-07-18T01:40:19;18.40;91.90
71155;DHT22;59375;53.216;5.728;2022-07-18T01:42:45;18.40;91.90
71155;DHT22;59375;53.216;5.728;2022-07-18T01:45:11;18.40;91.80
71155;DHT22;59375;53.216;5.728;2022-07-18T01:47:37;18.30;91.80
71155;DHT22;59375;53.216;5.728;2022-07-18T01:50:03;18.20;91.90
71155;DHT22;59375;53.216;5.728;2022-07-18T01:52:28;18.20;92.00
71155;DHT22;59375;53.216;5.728;2022-07-18T01:54:54;18.20;92.00
71155;DHT22;59375;53.216;5.728;2022-07-18T01:57:19;18.10;92.00
71155;DHT22;59375;53.216;5.728;2022-07-18T01:59:45;18.10;92.20
71155;DHT22;59375;53.216;5.728;2022-07-18T02:02:10;18.00;92.20
71155;DHT22;59375;53.216;5.728;2022-07-18T02:04:36;18.00;92.30
71155;DHT22;59375;53.216;5.728;2022-07-18T02:07:20;17.90;92.30
71155;DHT22;59375;53.216;5.728;2022-07-18T02:09:46;17.90;92.40
71155;DHT22;59375;53.216;5.728;2022-07-18T02:12:11;17.90;92.30
71155;DHT22;59375;53.216;5.728;2022-07-18T02:14:37;17.80;92.40
71155;DHT22;59375;53.216;5.728;2022-07-18T02:17:02;17.80;92.40
71155;DHT22;59375;53.216;5.728;2022-07-18T02:19:28;17.80;92.40
71155;DHT22;59375;53.216;5.728;2022-07-18T02:21:54;17.80;92.50
71155;DHT22;59375;53.216;5.728;2022-07-18T02:24:19;17.70;92.50
71155;DHT22;59375;53.216;5.728;2022-07-18T02:26:45;17.70;92.60
71155;DHT22;59375;53.216;5.728;2022-07-18T02:29:10;17.70;92.60
71155;DHT22;59375;53.216;5.728;2022-07-18T02:31:36;17.70;92.50
71155;DHT22;59375;53.216;5.728;2022-07-18T02:34:02;17.70;92.50
71155;DHT22;59375;53.216;5.728;2022-07-18T02:36:38;17.70;92.40
71155;DHT22;59375;53.216;5.728;2022-07-18T02:39:05;17.70;92.40
71155;DHT22;59375;53.216;5.728;2022-07-18T02:41:31;17.70;92.40
71155;DHT22;59375;53.216;5.728;2022-07-18T02:43:57;17.60;92.30
71155;DHT22;59375;53.216;5.728;2022-07-18T02:46:22;17.60;92.30
71155;DHT22;59375;53.216;5.728;2022-07-18T02:48:48;17.60;92.20
71155;DHT22;59375;53.216;5.728;2022-07-18T02:51:13;17.50;92.20
71155;DHT22;59375;53.216;5.728;2022-07-18T02:53:39;17.50;92.20
71155;DHT22;59375;53.216;5.728;2022-07-18T02:56:05;17.50;92.10
71155;DHT22;59375;53.216;5.728;2022-07-18T02:58:30;17.50;92.10
71155;DHT22;59375;53.216;5.728;2022-07-18T03:00:57;17.50;92.10
71155;DHT22;59375;53.216;5.728;2022-07-18T03:03:23;17.50;92.00
71155;DHT22;59375;53.216;5.728;2022-07-18T03:05:49;17.40;92.00
71155;DHT22;59375;53.216;5.728;2022-07-18T03:08:14;17.40;91.90
71155;DHT22;59375;53.216;5.728;2022-07-18T03:10:40;17.40;91.80
71155;DHT22;59375;53.216;5.728;2022-07-18T03:13:05;17.40;91.60
71155;DHT22;59375;53.216;5.728;2022-07-18T03:15:31;17.50;91.50
71155;DHT22;59375;53.216;5.728;2022-07-18T03:17:57;17.40;91.30
71155;DHT22;59375;53.216;5.728;2022-07-18T03:20:22;17.40;91.30
71155;DHT22;59375;53.216;5.728;2022-07-18T03:22:48;17.40;91.40
71155;DHT22;59375;53.216;5.728;2022-07-18T03:25:13;17.30;91.40
71155;DHT22;59375;53.216;5.728;2022-07-18T03:27:39;17.30;91.40
71155;DHT22;59375;53.216;5.728;2022-07-18T03:30:05;17.20;91.40
71155;DHT22;59375;53.216;5.728;2022-07-18T03:32:30;17.20;91.30
71155;DHT22;59375;53.216;5.728;2022-07-18T03:34:56;17.20;91.30
71155;DHT22;59375;53.216;5.728;2022-07-18T03:37:21;17.20;91.10
71155;DHT22;59375;53.216;5.728;2022-07-18T03:39:47;17.20;91.00
71155;DHT22;59375;53.216;5.728;2022-07-18T03:42:12;17.20;91.00
71155;DHT22;59375;53.216;5.728;2022-07-18T03:44:38;17.20;90.90
71155;DHT22;59375;53.216;5.728;2022-07-18T03:47:04;17.20;90.90
71155;DHT22;59375;53.216;5.728;2022-07-18T03:49:29;17.20;91.00
71155;DHT22;59375;53.216;5.728;2022-07-18T03:51:55;17.10;91.00
71155;DHT22;59375;53.216;5.728;2022-07-18T03:54:22;17.00;91.00
71155;DHT22;59375;53.216;5.728;2022-07-18T03:56:47;17.00;91.20
71155;DHT22;59375;53.216;5.728;2022-07-18T03:59:13;16.90;91.30
71155;DHT22;59375;53.216;5.728;2022-07-18T04:01:38;16.80;91.40
71155;DHT22;59375;53.216;5.728;2022-07-18T04:04:04;16.80;91.50
71155;DHT22;59375;53.216;5.728;2022-07-18T04:06:30;16.90;91.50
71155;DHT22;59375;53.216;5.728;2022-07-18T04:08:55;16.90;91.40
71155;DHT22;59375;53.216;5.728;2022-07-18T04:11:21;17.00;91.40
71155;DHT22;59375;53.216;5.728;2022-07-18T04:13:50;17.00;91.30
71155;DHT22;59375;53.216;5.728;2022-07-18T04:16:16;17.00;91.20
71155;DHT22;59375;53.216;5.728;2022-07-18T04:18:42;17.10;91.10
71155;DHT22;59375;53.216;5.728;2022-07-18T04:21:07;17.10;91.00
71155;DHT22;59375;53.216;5.728;2022-07-18T04:23:33;17.20;90.90
71155;DHT22;59375;53.216;5.728;2022-07-18T04:25:58;17.20;90.80
71155;DHT22;59375;53.216;5.728;2022-07-18T04:28:24;17.30;90.70
71155;DHT22;59375;53.216;5.728;2022-07-18T04:30:50;17.30;90.60
71155;DHT22;59375;53.216;5.728;2022-07-18T04:33:15;17.30;90.60
71155;DHT22;59375;53.216;5.728;2022-07-18T04:35:41;17.40;90.60
71155;DHT22;59375;53.216;5.728;2022-07-18T04:38:08;17.40;90.50
71155;DHT22;59375;53.216;5.728;2022-07-18T04:40:35;17.40;90.50
71155;DHT22;59375;53.216;5.728;2022-07-18T04:43:01;17.40;90.50
71155;DHT22;59375;53.216;5.728;2022-07-18T04:45:27;17.50;90.40
71155;DHT22;59375;53.216;5.728;2022-07-18T04:47:53;17.50;90.40
71155;DHT22;59375;53.216;5.728;2022-07-18T04:50:21;17.50;90.30
71155;DHT22;59375;53.216;5.728;2022-07-18T04:52:48;17.50;90.50
71155;DHT22;59375;53.216;5.728;2022-07-18T04:55:16;17.50;90.60
71155;DHT22;59375;53.216;5.728;2022-07-18T04:57:42;17.50;90.50
71155;DHT22;59375;53.216;5.728;2022-07-18T05:00:13;17.50;90.40
71155;DHT22;59375;53.216;5.728;2022-07-18T05:02:44;17.50;90.50
71155;DHT22;59375;53.216;5.728;2022-07-18T05:05:11;17.50;90.50
71155;DHT22;59375;53.216;5.728;2022-07-18T05:07:38;17.50;90.50
71155;DHT22;59375;53.216;5.728;2022-07-18T05:10:05;17.50;90.70
71155;DHT22;59375;53.216;5.728;2022-07-18T05:12:34;17.50;90.80
71155;DHT22;59375;53.216;5.728;2022-07-18T05:15:00;17.50;90.80
71155;DHT22;59375;53.216;5.728;2022-07-18T05:17:25;17.50;90.70
71155;DHT22;59375;53.216;5.728;2022-07-18T05:19:51;17.50;90.70
71155;DHT22;59375;53.216;5.728;2022-07-18T05:22:16;17.50;90.60
71155;DHT22;59375;53.216;5.728;2022-07-18T05:24:42;17.60;90.50
71155;DHT22;59375;53.216;5.728;2022-07-18T05:27:07;17.60;90.30
71155;DHT22;59375;53.216;5.728;2022-07-18T05:29:33;17.70;90.00
71155;DHT22;59375;53.216;5.728;2022-07-18T05:31:59;17.70;90.00
71155;DHT22;59375;53.216;5.728;2022-07-18T05:34:24;17.70;90.00
71155;DHT22;59375;53.216;5.728;2022-07-18T05:36:50;17.70;89.90
71155;DHT22;59375;53.216;5.728;2022-07-18T05:39:16;17.80;89.80
71155;DHT22;59375;53.216;5.728;2022-07-18T05:41:41;17.80;90.00
71155;DHT22;59375;53.216;5.728;2022-07-18T05:44:07;17.90;90.00
71155;DHT22;59375;53.216;5.728;2022-07-18T05:46:32;17.90;89.70
71155;DHT22;59375;53.216;5.728;2022-07-18T05:48:58;18.00;89.50
71155;DHT22;59375;53.216;5.728;2022-07-18T05:51:23;18.00;89.30
71155;DHT22;59375;53.216;5.728;2022-07-18T05:53:49;18.10;89.20
71155;DHT22;59375;53.216;5.728;2022-07-18T05:56:15;18.10;89.00
71155;DHT22;59375;53.216;5.728;2022-07-18T05:58:41;18.20;88.90
71155;DHT22;59375;53.216;5.728;2022-07-18T06:01:07;18.20;89.10
71155;DHT22;59375;53.216;5.728;2022-07-18T06:03:32;18.30;89.50
71155;DHT22;59375;53.216;5.728;2022-07-18T06:05:58;18.40;89.50
71155;DHT22;59375;53.216;5.728;2022-07-18T06:08:23;18.40;89.20
71155;DHT22;59375;53.216;5.728;2022-07-18T06:10:49;18.60;88.90
71155;DHT22;59375;53.216;5.728;2022-07-18T06:13:14;18.60;88.50
71155;DHT22;59375;53.216;5.728;2022-07-18T06:15:40;18.70;88.40
71155;DHT22;59375;53.216;5.728;2022-07-18T06:18:06;18.80;88.20
71155;DHT22;59375;53.216;5.728;2022-07-18T06:20:31;18.90;88.00
71155;DHT22;59375;53.216;5.728;2022-07-18T06:22:57;19.00;87.80
71155;DHT22;59375;53.216;5.728;2022-07-18T06:25:22;19.10;87.70
71155;DHT22;59375;53.216;5.728;2022-07-18T06:27:48;19.20;87.20
71155;DHT22;59375;53.216;5.728;2022-07-18T06:30:13;19.40;86.90
71155;DHT22;59375;53.216;5.728;2022-07-18T06:32:39;19.60;86.40
71155;DHT22;59375;53.216;5.728;2022-07-18T06:35:06;19.80;85.90
71155;DHT22;59375;53.216;5.728;2022-07-18T06:37:32;19.90;85.80
71155;DHT22;59375;53.216;5.728;2022-07-18T06:39:58;20.10;85.50
71155;DHT22;59375;53.216;5.728;2022-07-18T06:42:23;20.10;85.20
71155;DHT22;59375;53.216;5.728;2022-07-18T06:44:49;20.10;84.90
71155;DHT22;59375;53.216;5.728;2022-07-18T06:47:14;20.10;84.60
71155;DHT22;59375;53.216;5.728;2022-07-18T06:49:40;20.20;84.80
71155;DHT22;59375;53.216;5.728;2022-07-18T06:52:06;20.20;84.80
71155;DHT22;59375;53.216;5.728;2022-07-18T06:54:32;20.30;84.80
71155;DHT22;59375;53.216;5.728;2022-07-18T06:57:00;20.30;84.70
71155;DHT22;59375;53.216;5.728;2022-07-18T06:59:28;20.40;84.90
71155;DHT22;59375;53.216;5.728;2022-07-18T07:01:54;20.50;84.90
71155;DHT22;59375;53.216;5.728;2022-07-18T07:04:19;20.60;84.20
71155;DHT22;59375;53.216;5.728;2022-07-18T07:06:45;20.60;84.10
71155;DHT22;59375;53.216;5.728;2022-07-18T07:09:10;20.80;83.90
71155;DHT22;59375;53.216;5.728;2022-07-18T07:11:36;20.90;83.70
71155;DHT22;59375;53.216;5.728;2022-07-18T07:14:01;20.90;83.20
71155;DHT22;59375;53.216;5.728;2022-07-18T07:16:27;21.10;83.00
71155;DHT22;59375;53.216;5.728;2022-07-18T07:18:53;21.40;82.70
71155;DHT22;59375;53.216;5.728;2022-07-18T07:21:19;21.80;82.20
71155;DHT22;59375;53.216;5.728;2022-07-18T07:23:44;22.40;81.50
71155;DHT22;59375;53.216;5.728;2022-07-18T07:26:10;23.00;80.10
71155;DHT22;59375;53.216;5.728;2022-07-18T07:28:35;23.40;78.90
71155;DHT22;59375;53.216;5.728;2022-07-18T07:31:01;23.50;78.20
71155;DHT22;59375;53.216;5.728;2022-07-18T07:33:26;23.60;77.50
71155;DHT22;59375;53.216;5.728;2022-07-18T07:35:52;23.80;77.20
71155;DHT22;59375;53.216;5.728;2022-07-18T07:38:17;24.10;76.60
71155;DHT22;59375;53.216;5.728;2022-07-18T07:40:44;24.50;75.90
71155;DHT22;59375;53.216;5.728;2022-07-18T07:43:11;24.80;74.80
71155;DHT22;59375;53.216;5.728;2022-07-18T07:45:38;24.80;73.20
71155;DHT22;59375;53.216;5.728;2022-07-18T07:48:04;24.70;73.10
71155;DHT22;59375;53.216;5.728;2022-07-18T07:50:31;24.80;73.40
71155;DHT22;59375;53.216;5.728;2022-07-18T07:52:57;25.00;71.40
71155;DHT22;59375;53.216;5.728;2022-07-18T07:55:23;25.10;71.20
71155;DHT22;59375;53.216;5.728;2022-07-18T07:57:48;25.40;69.80
71155;DHT22;59375;53.216;5.728;2022-07-18T08:00:14;25.70;69.10
71155;DHT22;59375;53.216;5.728;2022-07-18T08:05:21;26.10;67.50
71155;DHT22;59375;53.216;5.728;2022-07-18T08:07:47;26.30;67.40
71155;DHT22;59375;53.216;5.728;2022-07-18T08:10:13;26.30;66.70
71155;DHT22;59375;53.216;5.728;2022-07-18T08:12:39;26.30;66.00
71155;DHT22;59375;53.216;5.728;2022-07-18T08:15:05;26.30;64.50
71155;DHT22;59375;53.216;5.728;2022-07-18T08:17:30;26.40;64.30
71155;DHT22;59375;53.216;5.728;2022-07-18T08:19:56;26.40;64.20
71155;DHT22;59375;53.216;5.728;2022-07-18T08:22:21;26.50;64.40
71155;DHT22;59375;53.216;5.728;2022-07-18T08:24:47;26.60;64.30
71155;DHT22;59375;53.216;5.728;2022-07-18T08:27:12;26.70;63.70
71155;DHT22;59375;53.216;5.728;2022-07-18T08:29:38;26.80;63.20
71155;DHT22;59375;53.216;5.728;2022-07-18T08:32:04;26.90;63.30
71155;DHT22;59375;53.216;5.728;2022-07-18T08:34:30;27.00;61.80
71155;DHT22;59375;53.216;5.728;2022-07-18T08:36:56;27.20;61.80
71155;DHT22;59375;53.216;5.728;2022-07-18T08:39:21;27.40;60.10
71155;DHT22;59375;53.216;5.728;2022-07-18T08:41:50;27.50;59.30
71155;DHT22;59375;53.216;5.728;2022-07-18T08:44:17;27.70;58.90
71155;DHT22;59375;53.216;5.728;2022-07-18T08:46:50;27.90;58.60
71155;DHT22;59375;53.216;5.728;2022-07-18T08:49:16;28.00;58.60
71155;DHT22;59375;53.216;5.728;2022-07-18T08:51:42;28.10;58.40
71155;DHT22;59375;53.216;5.728;2022-07-18T08:54:08;28.20;57.70
71155;DHT22;59375;53.216;5.728;2022-07-18T08:56:34;28.30;57.00
71155;DHT22;59375;53.216;5.728;2022-07-18T08:59:00;28.30;56.20
71155;DHT22;59375;53.216;5.728;2022-07-18T09:01:28;28.40;56.30
71155;DHT22;59375;53.216;5.728;2022-07-18T09:03:53;28.60;56.60
71155;DHT22;59375;53.216;5.728;2022-07-18T09:06:50;28.70;56.80
71155;DHT22;59375;53.216;5.728;2022-07-18T09:09:18;28.80;55.30
71155;DHT22;59375;53.216;5.728;2022-07-18T09:14:31;28.70;56.50
71155;DHT22;59375;53.216;5.728;2022-07-18T09:17:24;28.80;56.00
71155;DHT22;59375;53.216;5.728;2022-07-18T09:22:22;28.90;57.00
71155;DHT22;59375;53.216;5.728;2022-07-18T09:30:08;29.20;57.20
71155;DHT22;59375;53.216;5.728;2022-07-18T09:32:35;29.30;57.70
71155;DHT22;59375;53.216;5.728;2022-07-18T09:35:15;29.40;56.40
71155;DHT22;59375;53.216;5.728;2022-07-18T09:37:58;29.50;55.80
71155;DHT22;59375;53.216;5.728;2022-07-18T09:40:34;29.60;55.80
71155;DHT22;59375;53.216;5.728;2022-07-18T09:43:02;29.70;55.90
71155;DHT22;59375;53.216;5.728;2022-07-18T09:45:37;29.60;54.10
71155;DHT22;59375;53.216;5.728;2022-07-18T09:48:28;29.60;53.90
71155;DHT22;59375;53.216;5.728;2022-07-18T09:51:01;29.60;53.40
71155;DHT22;59375;53.216;5.728;2022-07-18T09:53:30;29.70;53.50
71155;DHT22;59375;53.216;5.728;2022-07-18T09:58:30;30.20;53.20
71155;DHT22;59375;53.216;5.728;2022-07-18T10:00:58;30.50;52.80
71155;DHT22;59375;53.216;5.728;2022-07-18T10:03:24;30.50;52.40
71155;DHT22;59375;53.216;5.728;2022-07-18T10:05:53;30.60;52.70
71155;DHT22;59375;53.216;5.728;2022-07-18T10:08:25;30.70;52.60
71155;DHT22;59375;53.216;5.728;2022-07-18T10:10:53;30.90;52.90
71155;DHT22;59375;53.216;5.728;2022-07-18T10:13:21;31.00;52.40
71155;DHT22;59375;53.216;5.728;2022-07-18T10:15:48;31.10;52.10
71155;DHT22;59375;53.216;5.728;2022-07-18T10:18:17;31.20;51.90
71155;DHT22;59375;53.216;5.728;2022-07-18T10:20:54;31.10;50.10
71155;DHT22;59375;53.216;5.728;2022-07-18T10:23:31;31.10;50.00
71155;DHT22;59375;53.216;5.728;2022-07-18T10:26:26;31.20;49.60
71155;DHT22;59375;53.216;5.728;2022-07-18T10:31:31;31.10;51.10
71155;DHT22;59375;53.216;5.728;2022-07-18T10:36:36;30.80;50.30
71155;DHT22;59375;53.216;5.728;2022-07-18T10:39:06;30.80;50.80
71155;DHT22;59375;53.216;5.728;2022-07-18T10:41:34;30.80;50.90
71155;DHT22;59375;53.216;5.728;2022-07-18T10:50:03;31.10;50.70
71155;DHT22;59375;53.216;5.728;2022-07-18T10:57:46;31.40;50.10
71155;DHT22;59375;53.216;5.728;2022-07-18T11:00:41;31.20;50.50
71155;DHT22;59375;53.216;5.728;2022-07-18T11:03:10;30.90;48.90
71155;DHT22;59375;53.216;5.728;2022-07-18T11:05:49;30.60;50.20
71155;DHT22;59375;53.216;5.728;2022-07-18T11:08:17;30.50;51.00
71155;DHT22;59375;53.216;5.728;2022-07-18T11:16:15;30.10;49.90
71155;DHT22;59375;53.216;5.728;2022-07-18T11:21:32;29.80;50.10
71155;DHT22;59375;53.216;5.728;2022-07-18T11:24:03;29.80;50.30
71155;DHT22;59375;53.216;5.728;2022-07-18T11:26:30;29.90;51.20
71155;DHT22;59375;53.216;5.728;2022-07-18T11:29:01;29.90;51.10
71155;DHT22;59375;53.216;5.728;2022-07-18T11:31:28;29.90;51.00
71155;DHT22;59375;53.216;5.728;2022-07-18T11:33:54;29.90;49.90
71155;DHT22;59375;53.216;5.728;2022-07-18T11:36:22;29.80;50.20
71155;DHT22;59375;53.216;5.728;2022-07-18T11:39:03;29.80;49.80
71155;DHT22;59375;53.216;5.728;2022-07-18T11:41:29;29.80;50.00
71155;DHT22;59375;53.216;5.728;2022-07-18T11:43:56;29.80;50.00
71155;DHT22;59375;53.216;5.728;2022-07-18T11:46:23;29.90;50.20
71155;DHT22;59375;53.216;5.728;2022-07-18T11:49:02;29.90;49.90
71155;DHT22;59375;53.216;5.728;2022-07-18T11:51:38;29.80;50.40
71155;DHT22;59375;53.216;5.728;2022-07-18T11:54:05;29.80;51.50
71155;DHT22;59375;53.216;5.728;2022-07-18T11:56:30;29.80;51.50
71155;DHT22;59375;53.216;5.728;2022-07-18T11:58:56;29.80;51.20
71155;DHT22;59375;53.216;5.728;2022-07-18T12:01:30;29.90;51.20
71155;DHT22;59375;53.216;5.728;2022-07-18T12:03:56;30.00;50.50
71155;DHT22;59375;53.216;5.728;2022-07-18T12:06:23;30.20;49.90
71155;DHT22;59375;53.216;5.728;2022-07-18T12:08:52;30.20;50.50
71155;DHT22;59375;53.216;5.728;2022-07-18T12:11:29;30.30;50.40
71155;DHT22;59375;53.216;5.728;2022-07-18T12:18:52;30.60;49.70
71155;DHT22;59375;53.216;5.728;2022-07-18T12:21:17;30.60;49.40
71155;DHT22;59375;53.216;5.728;2022-07-18T12:23:43;30.60;50.00
71155;DHT22;59375;53.216;5.728;2022-07-18T12:26:08;30.60;49.20
71155;DHT22;59375;53.216;5.728;2022-07-18T12:28:34;30.40;49.80
71155;DHT22;59375;53.216;5.728;2022-07-18T12:30:59;30.20;49.00
71155;DHT22;59375;53.216;5.728;2022-07-18T12:33:25;30.00;49.50
71155;DHT22;59375;53.216;5.728;2022-07-18T12:35:59;29.80;49.90
71155;DHT22;59375;53.216;5.728;2022-07-18T12:38:25;29.70;51.40
71155;DHT22;59375;53.216;5.728;2022-07-18T12:40:55;29.70;51.70
71155;DHT22;59375;53.216;5.728;2022-07-18T12:45:48;29.60;52.50
71155;DHT22;59375;53.216;5.728;2022-07-18T12:48:14;29.80;53.20
71155;DHT22;59375;53.216;5.728;2022-07-18T12:50:41;30.00;53.40
71155;DHT22;59375;53.216;5.728;2022-07-18T12:53:07;30.20;52.50
71155;DHT22;59375;53.216;5.728;2022-07-18T12:55:33;30.60;52.80
71155;DHT22;59375;53.216;5.728;2022-07-18T12:58:00;30.90;51.30
71155;DHT22;59375;53.216;5.728;2022-07-18T13:00:26;31.10;50.10
71155;DHT22;59375;53.216;5.728;2022-07-18T13:02:52;31.30;50.00
71155;DHT22;59375;53.216;5.728;2022-07-18T13:05:17;31.50;49.40
71155;DHT22;59375;53.216;5.728;2022-07-18T13:07:43;31.60;48.20
71155;DHT22;59375;53.216;5.728;2022-07-18T13:10:09;31.70;47.70
71155;DHT22;59375;53.216;5.728;2022-07-18T13:12:34;31.70;47.90
71155;DHT22;59375;53.216;5.728;2022-07-18T13:15:00;31.90;48.00
71155;DHT22;59375;53.216;5.728;2022-07-18T13:17:25;32.10;48.20
71155;DHT22;59375;53.216;5.728;2022-07-18T13:19:51;32.20;47.90
71155;DHT22;59375;53.216;5.728;2022-07-18T13:22:17;31.90;47.60
71155;DHT22;59375;53.216;5.728;2022-07-18T13:24:42;31.70;46.70
71155;DHT22;59375;53.216;5.728;2022-07-18T13:27:08;31.40;45.80
71155;DHT22;59375;53.216;5.728;2022-07-18T13:29:34;31.40;46.00
71155;DHT22;59375;53.216;5.728;2022-07-18T13:32:00;31.40;47.50
71155;DHT22;59375;53.216;5.728;2022-07-18T13:34:26;31.40;46.50
71155;DHT22;59375;53.216;5.728;2022-07-18T13:36:52;31.50;44.20
71155;DHT22;59375;53.216;5.728;2022-07-18T13:39:19;31.50;44.00
71155;DHT22;59375;53.216;5.728;2022-07-18T13:41:45;31.40;44.40
71155;DHT22;59375;53.216;5.728;2022-07-18T13:44:11;31.20;45.20
71155;DHT22;59375;53.216;5.728;2022-07-18T13:46:37;31.20;45.80
71155;DHT22;59375;53.216;5.728;2022-07-18T13:49:08;31.30;46.30
71155;DHT22;59375;53.216;5.728;2022-07-18T13:51:34;31.30;47.40
71155;DHT22;59375;53.216;5.728;2022-07-18T13:54:02;31.40;45.90
71155;DHT22;59375;53.216;5.728;2022-07-18T13:56:28;31.30;43.80
71155;DHT22;59375;53.216;5.728;2022-07-18T13:58:54;31.10;43.60
71155;DHT22;59375;53.216;5.728;2022-07-18T14:01:19;31.10;44.80
71155;DHT22;59375;53.216;5.728;2022-07-18T14:03:45;31.10;44.90
71155;DHT22;59375;53.216;5.728;2022-07-18T14:06:10;31.20;44.60
71155;DHT22;59375;53.216;5.728;2022-07-18T14:08:36;31.40;43.90
71155;DHT22;59375;53.216;5.728;2022-07-18T14:11:02;31.40;43.70
71155;DHT22;59375;53.216;5.728;2022-07-18T14:13:28;31.60;43.00
71155;DHT22;59375;53.216;5.728;2022-07-18T14:15:54;31.70;42.60
71155;DHT22;59375;53.216;5.728;2022-07-18T14:18:20;31.70;42.10
71155;DHT22;59375;53.216;5.728;2022-07-18T14:20:46;31.50;39.80
71155;DHT22;59375;53.216;5.728;2022-07-18T14:23:11;31.40;41.30
71155;DHT22;59375;53.216;5.728;2022-07-18T14:25:37;31.40;41.50
71155;DHT22;59375;53.216;5.728;2022-07-18T14:28:03;31.60;40.90
71155;DHT22;59375;53.216;5.728;2022-07-18T14:30:28;31.70;39.00
71155;DHT22;59375;53.216;5.728;2022-07-18T14:32:54;31.90;39.20
71155;DHT22;59375;53.216;5.728;2022-07-18T14:35:19;32.00;39.50
71155;DHT22;59375;53.216;5.728;2022-07-18T14:37:45;32.00;39.00
71155;DHT22;59375;53.216;5.728;2022-07-18T14:40:11;31.90;39.30
71155;DHT22;59375;53.216;5.728;2022-07-18T14:42:36;31.90;40.10
71155;DHT22;59375;53.216;5.728;2022-07-18T14:45:02;31.70;40.50
71155;DHT22;59375;53.216;5.728;2022-07-18T14:47:28;31.70;40.90
71155;DHT22;59375;53.216;5.728;2022-07-18T14:49:56;31.80;41.70
71155;DHT22;59375;53.216;5.728;2022-07-18T14:52:22;31.80;42.10
71155;DHT22;59375;53.216;5.728;2022-07-18T14:54:47;31.80;42.30
71155;DHT22;59375;53.216;5.728;2022-07-18T14:57:13;31.70;42.70
71155;DHT22;59375;53.216;5.728;2022-07-18T14:59:41;31.70;42.70
71155;DHT22;59375;53.216;5.728;2022-07-18T15:02:07;31.70;42.90
71155;DHT22;59375;53.216;5.728;2022-07-18T15:04:33;31.80;42.90
71155;DHT22;59375;53.216;5.728;2022-07-18T15:06:59;32.00;43.40
71155;DHT22;59375;53.216;5.728;2022-07-18T15:09:24;31.90;43.30
71155;DHT22;59375;53.216;5.728;2022-07-18T15:11:50;31.90;43.70
71155;DHT22;59375;53.216;5.728;2022-07-18T15:14:15;31.80;44.20
71155;DHT22;59375;53.216;5.728;2022-07-18T15:16:41;31.70;43.70
71155;DHT22;59375;53.216;5.728;2022-07-18T15:19:07;31.70;43.60
71155;DHT22;59375;53.216;5.728;2022-07-18T15:21:32;31.70;43.60
71155;DHT22;59375;53.216;5.728;2022-07-18T15:23:58;31.60;43.20
71155;DHT22;59375;53.216;5.728;2022-07-18T15:26:24;31.50;43.10
71155;DHT22;59375;53.216;5.728;2022-07-18T15:28:50;31.40;43.50
71155;DHT22;59375;53.216;5.728;2022-07-18T15:31:15;31.40;43.50
71155;DHT22;59375;53.216;5.728;2022-07-18T15:33:41;31.40;44.00
71155;DHT22;59375;53.216;5.728;2022-07-18T15:36:07;31.50;41.80
71155;DHT22;59375;53.216;5.728;2022-07-18T15:38:32;31.50;41.90
71155;DHT22;59375;53.216;5.728;2022-07-18T15:40:58;31.40;42.40
71155;DHT22;59375;53.216;5.728;2022-07-18T15:43:23;31.30;42.50
71155;DHT22;59375;53.216;5.728;2022-07-18T15:45:49;31.20;42.70
71155;DHT22;59375;53.216;5.728;2022-07-18T15:48:15;31.30;42.80
71155;DHT22;59375;53.216;5.728;2022-07-18T15:50:41;31.30;42.30
71155;DHT22;59375;53.216;5.728;2022-07-18T15:53:07;31.30;41.80
71155;DHT22;59375;53.216;5.728;2022-07-18T15:55:32;31.30;42.10
71155;DHT22;59375;53.216;5.728;2022-07-18T15:57:58;31.30;42.30
71155;DHT22;59375;53.216;5.728;2022-07-18T16:00:24;31.30;41.70
71155;DHT22;59375;53.216;5.728;2022-07-18T16:02:50;31.30;42.30
71155;DHT22;59375;53.216;5.728;2022-07-18T16:05:16;31.30;42.30
71155;DHT22;59375;53.216;5.728;2022-07-18T16:07:41;31.20;42.10
71155;DHT22;59375;53.216;5.728;2022-07-18T16:10:07;31.20;42.10
71155;DHT22;59375;53.216;5.728;2022-07-18T16:12:33;31.20;42.70
71155;DHT22;59375;53.216;5.728;2022-07-18T16:14:59;31.10;42.40